createdAt,value
2022-11-26T00:01:01.096Z,20.63
2022-11-26T00:03:28.165Z,19.20
2022-11-26T00:05:57.226Z,18.37
2022-11-26T00:08:33.495Z,18.17
2022-11-26T00:11:00.862Z,17.87
2022-11-26T00:13:30.076Z,14.00
2022-11-26T00:15:57.009Z,15.83
2022-11-26T00:18:26.475Z,19.73
2022-11-26T00:20:56.776Z,21.80
2022-11-26T00:23:26.546Z,24.90
2022-11-26T00:25:56.491Z,20.17
2022-11-26T00:28:26.015Z,17.10
2022-11-26T00:30:53.970Z,17.87
2022-11-26T00:33:20.683Z,18.10
2022-11-26T00:35:49.629Z,23.90
2022-11-26T00:38:20.038Z,23.33
2022-11-26T00:40:46.892Z,21.93
2022-11-26T00:43:16.034Z,22.80
2022-11-26T00:45:43.293Z,23.70
2022-11-26T00:48:10.339Z,24.13
2022-11-26T00:50:40.573Z,27.80
2022-11-26T00:53:08.234Z,21.47
2022-11-26T00:55:40.839Z,19.50
2022-11-26T00:58:20.622Z,18.07
2022-11-26T01:00:48.237Z,22.37
2022-11-26T01:03:15.417Z,21.13
2022-11-26T01:05:42.440Z,20.90
2022-11-26T01:08:34.000Z,23.03
2022-11-26T01:11:03.769Z,23.60
2022-11-26T01:13:31.361Z,23.93
2022-11-26T01:15:59.974Z,28.47
2022-11-26T01:18:27.999Z,23.90
2022-11-26T01:20:54.990Z,18.87
2022-11-26T01:23:22.350Z,24.47
2022-11-26T01:25:49.448Z,20.13
2022-11-26T01:28:18.579Z,19.00
2022-11-26T01:30:45.724Z,24.77
2022-11-26T01:33:12.764Z,21.60
2022-11-26T01:35:39.858Z,22.43
2022-11-26T01:38:06.929Z,23.97
2022-11-26T01:41:00.225Z,23.10
2022-11-26T01:43:40.956Z,18.53
2022-11-26T01:46:16.144Z,27.63
2022-11-26T01:48:43.301Z,22.63
2022-11-26T01:51:11.631Z,20.67
2022-11-26T01:53:58.856Z,24.63
2022-11-26T01:56:37.640Z,23.47
2022-11-26T01:59:30.723Z,24.17
2022-11-26T02:01:59.330Z,23.43
2022-11-26T02:04:35.738Z,23.83
2022-11-26T02:07:03.099Z,21.47
2022-11-26T02:09:30.354Z,21.17
2022-11-26T02:11:57.669Z,32.63
2022-11-26T02:14:34.400Z,23.00
2022-11-26T02:17:06.964Z,24.50
2022-11-26T02:19:54.905Z,16.73
2022-11-26T02:22:40.489Z,30.83
2022-11-26T02:25:19.026Z,26.73
2022-11-26T02:28:31.491Z,27.10
2022-11-26T02:31:36.836Z,29.13
2022-11-26T02:34:26.634Z,31.63
2022-11-26T02:37:00.275Z,32.07
2022-11-26T02:39:29.068Z,25.77
2022-11-26T02:41:58.817Z,27.73
2022-11-26T02:44:28.857Z,30.80
2022-11-26T02:47:01.848Z,29.40
2022-11-26T02:49:29.983Z,31.70
2022-11-26T02:51:59.549Z,29.80
2022-11-26T02:54:28.131Z,27.37
2022-11-26T02:56:55.296Z,30.00
2022-11-26T02:59:22.257Z,32.57
2022-11-26T03:02:00.736Z,37.27
2022-11-26T03:04:33.718Z,40.33
2022-11-26T03:07:04.360Z,31.73
2022-11-26T03:09:52.152Z,38.43
2022-11-26T03:12:19.189Z,39.67
2022-11-26T03:14:46.291Z,46.57
2022-11-26T03:17:13.499Z,43.47
2022-11-26T03:19:40.449Z,37.47
2022-11-26T03:22:07.570Z,33.83
2022-11-26T03:24:34.661Z,35.13
2022-11-26T03:27:01.658Z,35.00
2022-11-26T03:29:28.764Z,46.20
2022-11-26T03:31:55.873Z,35.87
2022-11-26T03:34:22.926Z,41.70
2022-11-26T03:36:49.912Z,48.63
2022-11-26T03:39:16.926Z,37.50
2022-11-26T03:41:44.212Z,49.77
2022-11-26T03:44:12.091Z,41.07
2022-11-26T03:46:39.040Z,41.67
2022-11-26T03:49:06.523Z,59.57
2022-11-26T03:51:33.522Z,36.20
2022-11-26T03:54:00.553Z,61.03
2022-11-26T03:56:27.692Z,41.90
2022-11-26T03:58:54.699Z,42.63
2022-11-26T04:01:22.004Z,44.53
2022-11-26T04:03:49.120Z,45.60
2022-11-26T04:06:16.323Z,39.73
2022-11-26T04:08:43.336Z,38.13
2022-11-26T04:11:10.341Z,43.80
2022-11-26T04:13:37.344Z,54.80
2022-11-26T04:16:04.389Z,41.30
2022-11-26T04:18:31.421Z,49.67
2022-11-26T04:20:57.987Z,58.97
2022-11-26T04:23:24.987Z,43.77
2022-11-26T04:25:51.685Z,46.13
2022-11-26T04:28:18.691Z,46.67
2022-11-26T04:30:45.423Z,52.57
2022-11-26T04:33:12.462Z,45.93
2022-11-26T04:35:39.462Z,57.27
2022-11-26T04:38:06.070Z,48.03
2022-11-26T04:40:33.139Z,39.20
2022-11-26T04:43:00.120Z,61.27
2022-11-26T04:45:27.417Z,38.97
2022-11-26T04:47:54.425Z,49.87
2022-11-26T04:50:21.134Z,56.40
2022-11-26T04:52:48.503Z,49.40
2022-11-26T04:55:16.165Z,54.37
2022-11-26T04:57:43.003Z,47.43
2022-11-26T05:00:10.935Z,45.03
2022-11-26T05:02:37.577Z,55.80
2022-11-26T05:05:04.419Z,50.77
2022-11-26T05:07:31.041Z,44.23
2022-11-26T05:09:57.739Z,40.40
2022-11-26T05:12:24.350Z,39.27
2022-11-26T05:14:50.912Z,50.73
2022-11-26T05:17:17.847Z,39.27
2022-11-26T05:19:44.521Z,52.33
2022-11-26T05:22:11.599Z,41.67
2022-11-26T05:24:38.750Z,48.43
2022-11-26T05:27:05.896Z,47.40
2022-11-26T05:29:33.219Z,49.47
2022-11-26T05:31:59.878Z,38.63
2022-11-26T05:34:27.125Z,49.40
2022-11-26T05:36:53.847Z,39.87
2022-11-26T05:39:20.818Z,54.30
2022-11-26T05:41:47.816Z,41.13
2022-11-26T05:44:14.504Z,47.17
2022-11-26T05:46:42.379Z,42.87
2022-11-26T05:49:09.666Z,43.10
2022-11-26T05:51:37.026Z,46.70
2022-11-26T05:54:04.045Z,42.60
2022-11-26T05:56:30.611Z,46.43
2022-11-26T05:58:57.168Z,39.00
2022-11-26T06:01:24.143Z,37.13
2022-11-26T06:03:50.927Z,48.60
2022-11-26T06:06:17.586Z,48.87
2022-11-26T06:08:44.628Z,44.03
2022-11-26T06:11:14.423Z,44.50
2022-11-26T06:13:41.474Z,42.17
2022-11-26T06:16:08.460Z,42.03
2022-11-26T06:18:37.740Z,43.43
2022-11-26T06:21:06.569Z,47.63
2022-11-26T06:23:34.191Z,36.17
2022-11-26T06:26:01.379Z,44.37
2022-11-26T06:28:28.375Z,37.13
2022-11-26T06:30:54.948Z,39.70
2022-11-26T06:33:22.061Z,30.20
2022-11-26T06:35:48.704Z,38.67
2022-11-26T06:38:15.301Z,41.93
2022-11-26T06:40:41.856Z,31.57
2022-11-26T06:43:08.843Z,34.63
2022-11-26T06:45:35.987Z,35.60
2022-11-26T06:48:03.040Z,31.03
2022-11-26T06:50:30.024Z,30.33
2022-11-26T06:52:57.056Z,32.17
2022-11-26T06:55:24.097Z,41.57
2022-11-26T06:57:51.799Z,55.47
2022-11-26T07:00:19.130Z,51.57
2022-11-26T07:02:45.792Z,33.77
2022-11-26T07:05:12.847Z,38.30
2022-11-26T07:07:39.844Z,25.60
2022-11-26T07:10:07.352Z,32.93
2022-11-26T07:12:34.371Z,59.73
2022-11-26T07:15:01.395Z,58.23
2022-11-26T07:17:28.829Z,42.13
2022-11-26T07:19:55.393Z,46.90
2022-11-26T07:22:22.398Z,34.33
2022-11-26T07:24:49.030Z,26.83
2022-11-26T07:27:16.255Z,25.80
2022-11-26T07:29:43.323Z,23.47
2022-11-26T07:32:10.002Z,30.80
2022-11-26T07:34:36.861Z,21.77
2022-11-26T07:37:04.109Z,16.33
2022-11-26T07:39:30.970Z,19.87
2022-11-26T07:41:58.301Z,20.13
2022-11-26T07:44:25.290Z,23.00
2022-11-26T07:46:52.434Z,17.43
2022-11-26T07:49:19.095Z,21.37
2022-11-26T07:51:45.786Z,17.93
2022-11-26T07:54:12.871Z,18.43
2022-11-26T07:56:39.870Z,15.03
2022-11-26T07:59:06.436Z,16.60
2022-11-26T08:01:33.739Z,13.80
2022-11-26T08:04:03.376Z,14.90
2022-11-26T08:06:31.228Z,17.73
2022-11-26T08:09:02.416Z,20.77
2022-11-26T08:11:31.584Z,17.10
2022-11-26T08:14:01.162Z,13.87
2022-11-26T08:16:29.235Z,10.70
2022-11-26T08:19:00.830Z,16.23
2022-11-26T08:21:27.753Z,16.90
2022-11-26T08:23:55.080Z,12.67
2022-11-26T08:26:26.393Z,15.97
2022-11-26T08:28:58.538Z,19.97
2022-11-26T08:31:27.521Z,19.60
2022-11-26T08:33:58.910Z,15.97
2022-11-26T08:36:26.658Z,16.73
2022-11-26T08:38:53.230Z,20.17
2022-11-26T08:41:20.031Z,20.67
2022-11-26T08:46:33.289Z,22.27
2022-11-26T08:48:59.950Z,29.30
2022-11-26T08:51:26.583Z,24.03
2022-11-26T08:53:53.200Z,23.67
2022-11-26T08:56:19.854Z,21.70
2022-11-26T08:58:48.521Z,20.03
2022-11-26T09:01:17.823Z,30.17
2022-11-26T09:03:47.395Z,22.37
2022-11-26T09:06:14.123Z,22.83
2022-11-26T09:08:59.312Z,22.47
2022-11-26T09:11:27.751Z,20.43
2022-11-26T09:13:55.017Z,25.47
2022-11-26T09:16:22.604Z,15.73
2022-11-26T09:18:50.185Z,24.87
2022-11-26T09:21:17.031Z,21.70
2022-11-26T09:23:43.672Z,22.60
2022-11-26T09:26:10.263Z,16.33
2022-11-26T09:28:36.988Z,19.33
2022-11-26T09:31:03.597Z,27.50
2022-11-26T09:33:30.245Z,25.00
2022-11-26T09:36:07.599Z,27.70
2022-11-26T09:38:34.903Z,17.47
2022-11-26T09:41:31.330Z,18.27
2022-11-26T09:44:10.960Z,24.40
2022-11-26T09:47:15.206Z,20.33
2022-11-26T09:49:44.825Z,19.63
2022-11-26T09:52:15.495Z,31.47
2022-11-26T09:54:43.365Z,24.63
2022-11-26T09:57:25.891Z,24.17
2022-11-26T09:59:54.967Z,19.33
2022-11-26T10:02:22.528Z,17.30
2022-11-26T10:04:49.603Z,21.13
2022-11-26T10:07:25.024Z,23.77
2022-11-26T10:09:52.010Z,18.93
2022-11-26T10:12:50.538Z,16.73
2022-11-26T10:15:29.432Z,18.50
2022-11-26T10:18:17.926Z,17.20
2022-11-26T10:21:03.393Z,19.03
2022-11-26T10:23:45.459Z,24.07
2022-11-26T10:26:48.541Z,21.07
2022-11-26T10:29:33.348Z,18.40
2022-11-26T10:32:25.558Z,17.10
2022-11-26T10:34:57.558Z,14.57
2022-11-26T10:37:26.579Z,16.57
2022-11-26T10:40:02.024Z,22.70
2022-11-26T10:42:43.389Z,14.17
2022-11-26T10:45:19.923Z,15.37
2022-11-26T10:47:46.583Z,17.67
2022-11-26T10:53:23.844Z,14.67
2022-11-26T10:55:53.483Z,15.03
2022-11-26T10:58:24.362Z,20.90
2022-11-26T11:00:50.992Z,14.83
2022-11-26T11:03:59.911Z,21.30
2022-11-26T11:06:19.062Z,14.33
2022-11-26T11:08:47.294Z,14.87
2022-11-26T11:11:29.965Z,13.70
2022-11-26T11:13:57.622Z,22.47
2022-11-26T11:16:38.050Z,19.07
2022-11-26T11:19:20.071Z,17.97
2022-11-26T11:21:48.518Z,23.20
2022-11-26T11:24:23.090Z,18.00
2022-11-26T11:26:54.525Z,17.77
2022-11-26T11:29:26.076Z,20.00
2022-11-26T11:31:52.879Z,18.83
2022-11-26T11:34:31.895Z,17.93
2022-11-26T11:37:05.544Z,16.33
2022-11-26T11:39:35.829Z,15.43
2022-11-26T11:42:07.583Z,17.50
2022-11-26T11:44:46.303Z,24.10
2022-11-26T11:47:43.516Z,19.87
2022-11-26T11:50:32.144Z,21.23
2022-11-26T11:53:04.558Z,12.07
2022-11-26T11:56:08.843Z,11.87
2022-11-26T11:58:36.720Z,16.20
2022-11-26T12:01:28.230Z,17.03
2022-11-26T12:03:55.333Z,15.47
2022-11-26T12:06:30.699Z,14.60
2022-11-26T12:09:32.304Z,13.83
2022-11-26T12:12:25.599Z,13.73
2022-11-26T12:14:57.532Z,18.77
2022-11-26T12:17:44.625Z,17.03
2022-11-26T12:20:25.704Z,14.77
2022-11-26T12:23:18.814Z,14.50
2022-11-26T12:25:53.055Z,13.53
2022-11-26T12:28:34.059Z,11.20
2022-11-26T12:31:32.720Z,15.73
2022-11-26T12:34:08.185Z,18.00
2022-11-26T12:36:45.323Z,19.33
2022-11-26T12:39:43.636Z,15.37
2022-11-26T12:42:22.998Z,12.97
2022-11-26T12:44:52.474Z,12.57
2022-11-26T12:47:42.036Z,18.40
2022-11-26T12:50:57.236Z,16.10
2022-11-26T12:53:44.868Z,15.87
2022-11-26T12:56:31.027Z,21.13
2022-11-26T12:59:35.270Z,18.17
2022-11-26T13:02:19.757Z,14.80
2022-11-26T13:04:46.825Z,17.93
2022-11-26T13:07:13.892Z,15.70
2022-11-26T13:10:16.618Z,9.63
2022-11-26T13:12:55.617Z,19.50
2022-11-26T13:15:33.591Z,15.63
2022-11-26T13:18:01.740Z,17.07
2022-11-26T13:21:13.122Z,15.23
2022-11-26T13:23:40.228Z,12.77
2022-11-26T13:26:07.287Z,20.27
2022-11-26T13:29:00.001Z,14.33
2022-11-26T13:31:44.668Z,19.23
2022-11-26T13:34:14.334Z,10.63
2022-11-26T13:36:54.075Z,9.20
2022-11-26T13:39:53.479Z,15.13
2022-11-26T13:42:43.906Z,11.50
2022-11-26T13:45:10.936Z,17.03
2022-11-26T13:47:43.994Z,13.43
2022-11-26T13:50:32.148Z,18.20
2022-11-26T13:53:11.788Z,15.30
2022-11-26T13:55:46.682Z,12.67
2022-11-26T13:58:20.381Z,14.53
2022-11-26T14:00:47.433Z,16.20
2022-11-26T14:03:46.941Z,19.90
2022-11-26T14:06:14.551Z,17.50
2022-11-26T14:08:46.807Z,14.73
2022-11-26T14:11:39.348Z,15.83
2022-11-26T14:14:32.696Z,22.00
2022-11-26T14:17:02.656Z,10.40
2022-11-26T14:19:41.573Z,11.87
2022-11-26T14:22:20.089Z,10.30
2022-11-26T14:24:50.540Z,14.37
2022-11-26T14:27:30.132Z,17.03
2022-11-26T14:30:09.208Z,14.27
2022-11-26T14:33:18.580Z,15.77
2022-11-26T14:35:56.628Z,13.33
2022-11-26T14:38:28.361Z,11.97
2022-11-26T14:40:59.969Z,12.23
2022-11-26T14:43:28.053Z,13.03
2022-11-26T14:46:12.268Z,13.30
2022-11-26T14:48:46.425Z,11.07
2022-11-26T14:51:19.163Z,15.83
2022-11-26T14:53:48.663Z,16.87
2022-11-26T14:56:18.624Z,8.37
2022-11-26T14:58:50.034Z,7.93
2022-11-26T15:01:17.551Z,11.30
2022-11-26T15:03:58.184Z,12.90
2022-11-26T15:06:39.379Z,12.77
2022-11-26T15:09:24.159Z,7.00
2022-11-26T15:12:10.478Z,14.40
2022-11-26T15:14:46.569Z,7.77
2022-11-26T15:17:19.350Z,10.60
2022-11-26T15:19:47.343Z,11.10
2022-11-26T15:22:38.934Z,9.70
2022-11-26T15:25:15.508Z,12.70
2022-11-26T15:28:01.242Z,9.17
2022-11-26T15:30:29.724Z,13.30
2022-11-26T15:33:00.227Z,8.87
2022-11-26T15:35:27.856Z,13.77
2022-11-26T15:37:54.665Z,9.40
2022-11-26T15:40:31.302Z,9.53
2022-11-26T15:43:01.755Z,11.53
2022-11-26T15:45:42.276Z,9.20
2022-11-26T15:48:28.201Z,11.00
2022-11-26T15:51:24.756Z,9.73
2022-11-26T15:53:51.832Z,11.07
2022-11-26T15:56:21.815Z,15.60
2022-11-26T15:58:55.433Z,10.60
2022-11-26T16:01:27.099Z,9.57
2022-11-26T16:03:55.404Z,11.83
2022-11-26T16:06:40.028Z,9.67
2022-11-26T16:09:12.590Z,10.70
2022-11-26T16:11:56.540Z,10.23
2022-11-26T16:14:34.428Z,8.43
2022-11-26T16:17:20.209Z,12.60
2022-11-26T16:19:54.170Z,8.93
2022-11-26T16:22:27.098Z,9.77
2022-11-26T16:25:28.779Z,11.43
2022-11-26T16:28:13.980Z,16.07
2022-11-26T16:30:44.175Z,14.63
2022-11-26T16:33:11.125Z,9.10
2022-11-26T16:35:46.669Z,6.83
2022-11-26T16:38:21.608Z,11.50
2022-11-26T16:40:48.767Z,16.70
2022-11-26T16:43:15.846Z,11.60
2022-11-26T16:45:42.637Z,13.27
2022-11-26T16:48:26.400Z,8.10
2022-11-26T16:50:56.737Z,13.83
2022-11-26T16:53:23.926Z,10.33
2022-11-26T16:55:52.119Z,13.53
2022-11-26T16:58:30.889Z,13.50
2022-11-26T17:00:57.882Z,9.03
2022-11-26T17:03:27.405Z,9.30
2022-11-26T17:05:58.171Z,14.30
2022-11-26T17:08:25.343Z,11.90
2022-11-26T17:10:52.325Z,14.17
2022-11-26T17:13:20.376Z,10.27
2022-11-26T17:15:48.031Z,9.87
2022-11-26T17:18:23.414Z,11.87
2022-11-26T17:20:51.710Z,9.33
2022-11-26T17:23:18.784Z,7.93
2022-11-26T17:25:50.532Z,8.17
2022-11-26T17:28:17.263Z,12.10
2022-11-26T17:30:44.998Z,12.57
2022-11-26T17:33:12.344Z,12.30
2022-11-26T17:35:39.351Z,15.77
2022-11-26T17:38:18.404Z,12.80
2022-11-26T17:40:46.133Z,7.40
2022-11-26T17:43:13.746Z,13.63
2022-11-26T17:45:41.303Z,12.87
2022-11-26T17:48:13.147Z,12.93
2022-11-26T17:50:40.364Z,11.17
2022-11-26T17:53:07.420Z,10.30
2022-11-26T17:55:34.049Z,7.83
2022-11-26T17:58:01.136Z,7.23
2022-11-26T18:00:28.854Z,13.83
2022-11-26T18:02:56.349Z,14.87
2022-11-26T18:05:23.865Z,11.53
2022-11-26T18:07:50.672Z,8.70
2022-11-26T18:10:18.835Z,14.23
2022-11-26T18:12:46.061Z,14.97
2022-11-26T18:15:18.628Z,15.50
2022-11-26T18:17:50.821Z,9.20
2022-11-26T18:20:28.172Z,9.93
2022-11-26T18:22:57.297Z,14.33
2022-11-26T18:25:24.288Z,10.67
2022-11-26T18:27:51.616Z,7.80
2022-11-26T18:30:18.994Z,7.77
2022-11-26T18:32:46.121Z,11.63
2022-11-26T18:35:13.414Z,9.23
2022-11-26T18:37:40.778Z,7.00
2022-11-26T18:40:09.980Z,11.83
2022-11-26T18:42:38.137Z,8.10
2022-11-26T18:45:11.377Z,13.93
2022-11-26T18:47:38.185Z,12.17
2022-11-26T18:50:05.827Z,10.63
2022-11-26T18:52:32.835Z,13.90
2022-11-26T18:54:59.903Z,8.30
2022-11-26T18:57:26.959Z,10.03
2022-11-26T18:59:53.525Z,9.83
2022-11-26T19:02:20.646Z,8.13
2022-11-26T19:04:47.790Z,12.43
2022-11-26T19:07:15.507Z,9.40
2022-11-26T19:09:42.659Z,11.70
2022-11-26T19:12:09.917Z,13.83
2022-11-26T19:14:36.897Z,8.87
2022-11-26T19:17:03.976Z,6.23
2022-11-26T19:19:32.985Z,10.17
2022-11-26T19:22:01.698Z,7.77
2022-11-26T19:24:29.035Z,13.83
2022-11-26T19:26:56.149Z,8.27
2022-11-26T19:29:23.234Z,8.03
2022-11-26T19:31:50.367Z,9.20
2022-11-26T19:34:17.509Z,9.40
2022-11-26T19:36:48.155Z,6.67
2022-11-26T19:39:16.228Z,7.77
2022-11-26T19:41:43.364Z,6.83
2022-11-26T19:44:10.456Z,9.37
2022-11-26T19:46:40.559Z,10.53
2022-11-26T19:49:10.793Z,9.70
2022-11-26T19:51:37.771Z,7.97
2022-11-26T19:54:04.918Z,12.70
2022-11-26T19:56:32.320Z,15.30
2022-11-26T19:59:01.887Z,21.77
2022-11-26T20:01:30.948Z,26.50
2022-11-26T20:04:00.304Z,23.13
2022-11-26T20:06:28.546Z,21.07
2022-11-26T20:08:56.198Z,25.83
2022-11-26T20:11:23.657Z,19.37
2022-11-26T20:13:50.935Z,15.90
2022-11-26T20:16:23.735Z,16.07
2022-11-26T20:18:51.326Z,18.23
2022-11-26T20:21:21.687Z,10.87
2022-11-26T20:23:49.956Z,10.97
2022-11-26T20:26:26.635Z,8.33
2022-11-26T20:28:53.835Z,16.63
2022-11-26T20:31:24.022Z,11.37
2022-11-26T20:33:52.598Z,8.30
2022-11-26T20:36:22.991Z,11.83
2022-11-26T20:38:54.765Z,12.47
2022-11-26T20:41:21.868Z,7.23
2022-11-26T20:43:52.362Z,10.13
2022-11-26T20:46:22.024Z,10.13
2022-11-26T20:48:48.963Z,10.03
2022-11-26T20:51:18.611Z,7.97
2022-11-26T20:53:46.032Z,9.73
2022-11-26T20:56:14.388Z,8.67
2022-11-26T20:58:41.605Z,10.40
2022-11-26T21:01:26.217Z,7.00
2022-11-26T21:03:53.396Z,12.40
2022-11-26T21:06:28.821Z,12.53
2022-11-26T21:09:01.331Z,11.80
2022-11-26T21:11:28.877Z,8.57
2022-11-26T21:13:56.799Z,10.13
2022-11-26T21:16:23.840Z,10.00
2022-11-26T21:18:53.282Z,12.03
2022-11-26T21:21:20.386Z,15.70
2022-11-26T21:23:47.468Z,12.63
2022-11-26T21:26:19.624Z,11.17
2022-11-26T21:28:54.899Z,10.00
2022-11-26T21:31:22.549Z,13.73
2022-11-26T21:33:57.755Z,9.70
2022-11-26T21:36:25.167Z,11.03
2022-11-26T21:38:52.306Z,9.90
2022-11-26T21:41:20.284Z,10.97
2022-11-26T21:43:48.302Z,10.23
2022-11-26T21:46:17.705Z,12.67
2022-11-26T21:48:44.966Z,14.00
2022-11-26T21:51:14.190Z,12.30
2022-11-26T21:53:41.273Z,15.93
2022-11-26T21:56:09.731Z,11.93
2022-11-26T21:58:37.035Z,13.40
2022-11-26T22:01:11.990Z,12.90
2022-11-26T22:03:40.725Z,12.07
2022-11-26T22:06:07.862Z,14.10
2022-11-26T22:08:35.340Z,14.80
2022-11-26T22:11:11.274Z,11.73
2022-11-26T22:13:39.214Z,11.57
2022-11-26T22:16:07.135Z,11.80
2022-11-26T22:18:38.918Z,13.73
2022-11-26T22:21:09.732Z,11.43
2022-11-26T22:23:36.739Z,13.37
2022-11-26T22:26:03.772Z,13.27
2022-11-26T22:28:30.951Z,14.57
2022-11-26T22:30:58.155Z,9.80
2022-11-26T22:33:24.824Z,16.83
2022-11-26T22:35:51.844Z,13.63
2022-11-26T22:38:18.835Z,11.73
2022-11-26T22:40:45.852Z,13.07
2022-11-26T22:43:12.516Z,12.13
2022-11-26T22:45:39.554Z,15.03
2022-11-26T22:48:06.830Z,13.17
2022-11-26T22:50:33.840Z,14.37
2022-11-26T22:53:00.814Z,14.77
2022-11-26T22:55:27.461Z,13.53
2022-11-26T22:57:54.435Z,10.43
2022-11-26T23:00:44.864Z,15.80
2022-11-26T23:03:11.981Z,12.07
2022-11-26T23:05:39.341Z,13.33
2022-11-26T23:08:06.700Z,11.67
2022-11-26T23:10:33.708Z,15.00
2022-11-26T23:13:00.256Z,10.80
2022-11-26T23:15:27.263Z,9.40
2022-11-26T23:17:53.840Z,16.33
2022-11-26T23:20:20.892Z,12.63
2022-11-26T23:22:47.912Z,13.10
2022-11-26T23:25:14.932Z,11.47
2022-11-26T23:27:41.950Z,11.73
2022-11-26T23:30:09.164Z,9.37
2022-11-26T23:32:36.145Z,13.20
2022-11-26T23:35:02.789Z,9.40
2022-11-26T23:37:29.409Z,8.17
2022-11-26T23:39:56.427Z,7.37
2022-11-26T23:42:23.513Z,10.77
2022-11-26T23:44:50.488Z,8.80
2022-11-26T23:47:17.166Z,7.87
2022-11-26T23:49:44.188Z,9.53
2022-11-26T23:52:11.167Z,11.87
2022-11-26T23:54:37.742Z,8.57
2022-11-26T23:57:04.780Z,11.20
2022-11-26T23:59:31.820Z,6.80
